Mc Callsburg, Iowa
Current Conditions -  °F | °C
As of 11:53 PM on Thursday 30 Oct 2014 (Local Time) from KAMW Reporting Station
Broken Clouds Broken Clouds  
Wind Chill: 32°   Ceiling: 3800
Heat Index: 42°   Visibility: 10mi
Dew Point: 31°   Wind: 25mph
Humidity: 65%   Direction: 350°N
Pressure: 30.27"   Gusts: 35mph
Location:  42.1646°N, 93.4047°W
Report Text: KAMW 310453Z AUTO 35022G30KT 10SM BKN038 06/M01 A3027 RMK AO2 PK WND 35033/0402 SLP252 T00561006
Loading
Personal Weather Stations






























Interactive Weather Map
Tropical Storm Tracking
New forecast layout! Learn more

10-Day Weather Forecast

Advertisements
Track Severe Weather on mobile